createdAt,value
2022-10-28T00:01:25.055Z,51.12
2022-10-28T00:03:54.980Z,51.03
2022-10-28T00:06:25.617Z,51.00
2022-10-28T00:08:54.414Z,50.72
2022-10-28T00:11:24.928Z,50.76
2022-10-28T00:13:54.890Z,51.08
2022-10-28T00:16:26.521Z,50.96
2022-10-28T00:18:55.179Z,51.07
2022-10-28T00:21:25.538Z,50.84
2022-10-28T00:23:54.355Z,51.13
2022-10-28T00:26:24.756Z,50.73
2022-10-28T00:28:54.429Z,50.61
2022-10-28T00:31:26.319Z,50.69
2022-10-28T00:33:55.201Z,50.84
2022-10-28T00:36:24.981Z,50.61
2022-10-28T00:38:54.445Z,50.86
2022-10-28T00:41:25.035Z,50.55
2022-10-28T00:43:56.403Z,50.66
2022-10-28T00:46:31.154Z,50.60
2022-10-28T00:49:03.269Z,50.50
2022-10-28T00:51:33.520Z,50.35
2022-10-28T00:54:02.036Z,50.59
2022-10-28T00:56:33.824Z,50.21
2022-10-28T00:59:04.089Z,50.42
2022-10-28T01:01:34.131Z,50.45
2022-10-28T01:04:02.765Z,50.47
2022-10-28T01:06:31.326Z,50.29
2022-10-28T01:09:00.306Z,50.54
2022-10-28T01:11:53.672Z,50.28
2022-10-28T01:14:53.439Z,50.43
2022-10-28T01:17:33.678Z,50.03
2022-10-28T01:20:55.832Z,50.10
2022-10-28T01:23:30.521Z,50.18
2022-10-28T01:26:31.345Z,50.33
2022-10-28T01:29:26.792Z,49.81
2022-10-28T01:31:58.413Z,50.22
2022-10-28T01:34:31.749Z,50.35
2022-10-28T01:37:03.254Z,50.15
2022-10-28T01:39:34.766Z,50.10
2022-10-28T01:42:12.003Z,49.83
2022-10-28T01:44:47.170Z,50.00
2022-10-28T01:47:18.538Z,50.14
2022-10-28T01:49:49.689Z,50.11
2022-10-28T01:52:22.468Z,50.00
2022-10-28T01:54:52.998Z,50.06
2022-10-28T01:57:21.643Z,49.76
2022-10-28T01:59:50.268Z,49.85
2022-10-28T02:02:20.583Z,49.93
2022-10-28T02:04:49.133Z,49.58
2022-10-28T02:07:17.760Z,49.79
2022-10-28T02:09:57.993Z,49.43
2022-10-28T02:12:28.236Z,49.68
2022-10-28T02:15:18.896Z,49.44
2022-10-28T02:18:25.258Z,49.25
2022-10-28T02:20:56.740Z,49.61
2022-10-28T02:23:33.263Z,49.48
2022-10-28T02:26:05.345Z,49.45
2022-10-28T02:28:39.505Z,49.47
2022-10-28T02:31:11.791Z,49.32
2022-10-28T02:33:41.768Z,49.34
2022-10-28T02:36:13.034Z,49.18
2022-10-28T02:38:43.903Z,49.44
2022-10-28T02:41:17.786Z,49.21
2022-10-28T02:43:46.445Z,49.55
2022-10-28T02:46:15.159Z,49.38
2022-10-28T02:48:46.619Z,49.42
2022-10-28T02:51:18.033Z,49.34
2022-10-28T02:53:57.410Z,49.01
2022-10-28T02:56:26.181Z,49.34
2022-10-28T02:58:54.706Z,49.34
2022-10-28T03:01:23.512Z,49.12
2022-10-28T03:03:53.489Z,49.18
2022-10-28T03:06:22.147Z,48.83
2022-10-28T03:08:50.878Z,49.05
2022-10-28T03:11:20.341Z,48.89
2022-10-28T03:13:48.887Z,48.81
2022-10-28T03:16:17.617Z,48.87
2022-10-28T03:18:46.243Z,48.96
2022-10-28T03:21:16.300Z,48.72
2022-10-28T03:23:44.834Z,48.59
2022-10-28T03:26:13.377Z,48.71
2022-10-28T03:28:41.924Z,48.81
2022-10-28T03:31:10.541Z,48.85
2022-10-28T03:33:39.275Z,48.68
2022-10-28T03:36:08.699Z,48.74
2022-10-28T03:38:38.762Z,48.58
2022-10-28T03:41:07.550Z,48.63
2022-10-28T03:43:36.970Z,48.83
2022-10-28T03:46:05.655Z,48.66
2022-10-28T03:48:34.478Z,48.60
2022-10-28T03:51:03.251Z,48.63
2022-10-28T03:53:31.922Z,48.49
2022-10-28T03:56:02.596Z,48.63
2022-10-28T03:58:31.367Z,48.48
2022-10-28T04:00:59.964Z,48.48
2022-10-28T04:03:28.689Z,48.50
2022-10-28T04:05:57.320Z,48.60
2022-10-28T04:08:26.021Z,48.57
2022-10-28T04:10:54.749Z,48.55
2022-10-28T04:13:24.669Z,48.38
2022-10-28T04:15:53.425Z,48.34
2022-10-28T04:18:21.935Z,48.20
2022-10-28T04:20:50.706Z,48.26
2022-10-28T04:23:19.535Z,48.31
2022-10-28T04:25:48.276Z,48.49
2022-10-28T04:28:16.902Z,48.50
2022-10-28T04:30:48.516Z,48.31
2022-10-28T04:33:17.273Z,48.73
2022-10-28T04:35:46.412Z,48.52
2022-10-28T04:38:16.478Z,48.32
2022-10-28T04:40:45.157Z,48.33
2022-10-28T04:43:13.677Z,48.42
2022-10-28T04:45:42.301Z,48.37
2022-10-28T04:48:12.289Z,48.31
2022-10-28T04:50:41.258Z,48.22
2022-10-28T04:53:09.930Z,48.23
2022-10-28T04:55:38.594Z,48.18
2022-10-28T04:58:11.160Z,48.42
2022-10-28T05:00:39.807Z,48.45
2022-10-28T05:03:08.884Z,48.32
2022-10-28T05:05:38.889Z,48.11
2022-10-28T05:08:07.784Z,48.23
2022-10-28T05:10:36.316Z,48.34
2022-10-28T05:13:05.001Z,47.97
2022-10-28T05:15:33.532Z,48.28
2022-10-28T05:18:03.036Z,49.01
2022-10-28T05:20:31.935Z,48.27
2022-10-28T05:23:02.059Z,48.56
2022-10-28T05:25:30.931Z,48.45
2022-10-28T05:28:00.695Z,49.22
2022-10-28T05:30:29.310Z,48.95
2022-10-28T05:33:02.527Z,49.13
2022-10-28T05:35:31.190Z,48.85
2022-10-28T05:38:01.134Z,49.14
2022-10-28T05:40:29.674Z,48.67
2022-10-28T05:42:58.263Z,48.82
2022-10-28T05:45:26.969Z,48.71
2022-10-28T05:47:55.871Z,48.39
2022-10-28T05:50:24.785Z,48.47
2022-10-28T05:52:55.368Z,48.74
2022-10-28T05:55:28.296Z,48.94
2022-10-28T05:57:57.481Z,48.85
2022-10-28T06:00:26.948Z,48.72
2022-10-28T06:03:03.678Z,48.40
2022-10-28T06:05:32.217Z,48.44
2022-10-28T06:08:00.901Z,48.72
2022-10-28T06:10:30.836Z,48.85
2022-10-28T06:12:58.227Z,49.51
2022-10-28T06:15:27.779Z,49.11
2022-10-28T06:17:56.399Z,48.74
2022-10-28T06:20:25.035Z,48.97
2022-10-28T06:22:55.494Z,49.24
2022-10-28T06:25:26.283Z,48.86
2022-10-28T06:27:57.273Z,49.22
2022-10-28T06:30:26.866Z,49.08
2022-10-28T06:32:56.823Z,49.06
2022-10-28T06:35:25.365Z,48.80
2022-10-28T06:37:55.245Z,48.89
2022-10-28T06:40:24.456Z,49.10
2022-10-28T06:42:59.052Z,48.97
2022-10-28T06:45:27.688Z,48.97
2022-10-28T06:47:58.450Z,48.83
2022-10-28T06:50:27.135Z,48.87
2022-10-28T06:52:57.258Z,48.66
2022-10-28T06:55:26.528Z,49.07
2022-10-28T06:57:55.756Z,48.71
2022-10-28T07:00:26.934Z,49.02
2022-10-28T07:02:56.006Z,48.74
2022-10-28T07:05:25.488Z,48.68
2022-10-28T07:07:54.440Z,48.91
2022-10-28T07:10:23.345Z,48.46
2022-10-28T07:12:54.196Z,48.52
2022-10-28T07:15:23.065Z,48.45
2022-10-28T07:17:55.360Z,48.71
2022-10-28T07:20:24.429Z,48.84
2022-10-28T07:22:58.047Z,48.61
2022-10-28T07:25:27.263Z,48.69
2022-10-28T07:27:56.327Z,48.74
2022-10-28T07:30:25.427Z,48.76
2022-10-28T07:32:55.896Z,48.67
2022-10-28T07:35:25.037Z,48.66
2022-10-28T07:37:53.720Z,48.91
2022-10-28T07:40:22.743Z,48.51
2022-10-28T07:42:51.731Z,47.21
2022-10-28T07:45:20.705Z,47.42
2022-10-28T07:47:49.260Z,45.59
2022-10-28T07:50:19.281Z,46.74
2022-10-28T07:52:47.712Z,47.37
2022-10-28T07:55:16.321Z,48.80
2022-10-28T07:57:44.889Z,48.40
2022-10-28T08:00:14.285Z,49.10
2022-10-28T08:02:43.130Z,48.62
2022-10-28T08:05:11.797Z,48.62
2022-10-28T08:07:41.702Z,48.22
2022-10-28T08:10:10.770Z,48.57
2022-10-28T08:12:39.423Z,48.52
2022-10-28T08:15:10.743Z,48.25
2022-10-28T08:17:39.295Z,48.69
2022-10-28T08:20:09.102Z,48.57
2022-10-28T08:22:37.534Z,48.83
2022-10-28T08:25:08.238Z,49.06
2022-10-28T08:27:36.761Z,48.72
2022-10-28T08:30:06.720Z,48.72
2022-10-28T08:32:35.337Z,48.86
2022-10-28T08:35:04.032Z,49.00
2022-10-28T08:37:32.827Z,48.50
2022-10-28T08:40:01.402Z,49.05
2022-10-28T08:42:42.638Z,49.07
2022-10-28T08:45:19.223Z,48.90
2022-10-28T08:47:56.850Z,48.49
2022-10-28T08:50:26.819Z,48.84
2022-10-28T08:52:58.402Z,48.57
2022-10-28T08:55:30.133Z,48.66
2022-10-28T08:58:02.069Z,48.71
2022-10-28T09:00:31.848Z,48.45
2022-10-28T09:03:13.798Z,48.77
2022-10-28T09:05:43.572Z,48.85
2022-10-28T09:08:18.775Z,48.78
2022-10-28T09:11:05.352Z,48.66
2022-10-28T09:13:45.244Z,48.54
2022-10-28T09:16:19.316Z,48.58
2022-10-28T09:18:53.676Z,48.51
2022-10-28T09:21:26.145Z,49.05
2022-10-28T09:23:57.681Z,48.67
2022-10-28T09:26:36.488Z,48.59
2022-10-28T09:29:26.709Z,49.14
2022-10-28T09:31:58.304Z,49.11
2022-10-28T09:34:32.420Z,48.89
2022-10-28T09:37:04.656Z,49.30
2022-10-28T09:39:43.277Z,49.70
2022-10-28T09:42:15.276Z,49.43
2022-10-28T09:44:48.491Z,49.81
2022-10-28T09:47:19.041Z,50.52
2022-10-28T09:49:47.812Z,50.35
2022-10-28T09:52:19.977Z,50.41
2022-10-28T09:54:51.018Z,50.19
2022-10-28T09:57:20.125Z,50.11
2022-10-28T09:59:50.253Z,50.07
2022-10-28T10:02:30.819Z,50.27
2022-10-28T10:05:00.540Z,50.24
2022-10-28T10:07:33.681Z,50.48
2022-10-28T10:10:06.249Z,50.90
2022-10-28T10:12:35.026Z,50.39
2022-10-28T10:15:06.803Z,50.92
2022-10-28T10:17:40.476Z,50.30
2022-10-28T10:20:11.633Z,50.36
2022-10-28T10:22:41.316Z,50.53
2022-10-28T10:25:30.118Z,50.69
2022-10-28T10:28:00.856Z,50.90
2022-10-28T10:30:32.986Z,50.62
2022-10-28T10:33:02.443Z,50.51
2022-10-28T10:35:31.979Z,50.97
2022-10-28T10:38:01.925Z,51.09
2022-10-28T10:40:32.242Z,51.01
2022-10-28T10:43:20.544Z,50.76
2022-10-28T10:46:03.107Z,50.93
2022-10-28T10:48:34.006Z,50.58
2022-10-28T10:51:07.033Z,50.76
2022-10-28T10:53:36.357Z,50.39
2022-10-28T10:56:06.182Z,50.59
2022-10-28T10:58:35.711Z,50.60
2022-10-28T11:01:07.354Z,50.64
2022-10-28T11:03:38.446Z,50.48
2022-10-28T11:06:24.812Z,50.53
2022-10-28T11:08:57.296Z,50.66
2022-10-28T11:11:35.346Z,50.59
2022-10-28T11:14:07.151Z,50.29
2022-10-28T11:16:50.147Z,50.14
2022-10-28T11:19:22.693Z,50.19
2022-10-28T11:22:11.388Z,50.24
2022-10-28T11:25:00.627Z,50.06
2022-10-28T11:27:35.496Z,50.15
2022-10-28T11:30:04.527Z,49.99
2022-10-28T11:32:54.602Z,49.84
2022-10-28T11:35:47.580Z,50.05
2022-10-28T11:38:28.348Z,49.76
2022-10-28T11:41:04.219Z,49.76
2022-10-28T11:43:35.181Z,49.69
2022-10-28T11:46:06.803Z,49.92
2022-10-28T11:48:45.636Z,49.75
2022-10-28T11:51:21.061Z,49.77
2022-10-28T11:54:17.118Z,49.63
2022-10-28T11:56:47.518Z,49.81
2022-10-28T11:59:29.179Z,50.31
2022-10-28T12:02:01.772Z,49.96
2022-10-28T12:04:43.453Z,49.76
2022-10-28T12:07:31.211Z,49.96
2022-10-28T12:10:19.121Z,49.95
2022-10-28T12:12:51.700Z,50.21
2022-10-28T12:15:23.136Z,50.08
2022-10-28T12:17:57.470Z,49.88
2022-10-28T12:20:31.082Z,49.80
2022-10-28T12:23:00.495Z,50.07
2022-10-28T12:25:31.139Z,50.00
2022-10-28T12:28:01.478Z,50.01
2022-10-28T12:30:31.837Z,49.60
2022-10-28T12:33:02.812Z,49.85
2022-10-28T12:35:35.903Z,50.04
2022-10-28T12:38:07.787Z,49.92
2022-10-28T12:40:39.178Z,50.00
2022-10-28T12:43:10.742Z,50.16
2022-10-28T12:45:39.674Z,50.02
2022-10-28T12:48:14.741Z,50.18
2022-10-28T12:50:47.665Z,50.28
2022-10-28T12:53:35.992Z,50.27
2022-10-28T12:56:07.558Z,50.16
2022-10-28T12:58:37.807Z,50.44
2022-10-28T13:01:09.924Z,50.39
2022-10-28T13:03:38.948Z,50.31
2022-10-28T13:06:22.944Z,50.08
2022-10-28T13:09:06.944Z,50.19
2022-10-28T13:11:59.891Z,50.25
2022-10-28T13:14:39.856Z,50.15
2022-10-28T13:17:22.833Z,50.28
2022-10-28T13:19:57.942Z,50.40
2022-10-28T13:22:47.469Z,50.05
2022-10-28T13:25:38.893Z,50.26
2022-10-28T13:28:12.485Z,50.22
2022-10-28T13:30:41.677Z,50.69
2022-10-28T13:33:10.991Z,50.45
2022-10-28T13:35:39.874Z,50.52
2022-10-28T13:38:12.738Z,50.42
2022-10-28T13:41:10.614Z,50.51
2022-10-28T13:44:16.051Z,50.68
2022-10-28T13:47:25.265Z,50.74
2022-10-28T13:50:37.427Z,50.89
2022-10-28T13:53:43.612Z,50.33
2022-10-28T13:56:25.127Z,50.34
2022-10-28T13:58:55.152Z,50.57
2022-10-28T14:02:33.743Z,50.09
2022-10-28T14:05:05.927Z,50.23
2022-10-28T14:07:35.253Z,50.30
2022-10-28T14:10:21.752Z,50.29
2022-10-28T14:12:53.361Z,50.28
2022-10-28T14:15:27.339Z,50.29
2022-10-28T14:18:09.762Z,50.56
2022-10-28T14:20:55.001Z,50.28
2022-10-28T14:23:52.516Z,50.15
2022-10-28T14:26:21.352Z,49.96
2022-10-28T14:28:54.629Z,50.22
2022-10-28T14:31:42.175Z,50.12
2022-10-28T14:34:40.709Z,49.88
2022-10-28T14:37:30.099Z,50.49
2022-10-28T14:40:16.367Z,50.20
2022-10-28T14:42:55.854Z,50.05
2022-10-28T14:45:32.169Z,50.20
2022-10-28T14:48:30.046Z,50.06
2022-10-28T14:50:58.933Z,50.67
2022-10-28T14:53:29.351Z,50.36
2022-10-28T14:56:01.318Z,50.33
2022-10-28T14:58:31.920Z,50.11
2022-10-28T15:01:09.253Z,50.09
2022-10-28T15:03:38.239Z,50.34
2022-10-28T15:06:31.846Z,49.88
2022-10-28T15:09:05.961Z,50.24
2022-10-28T15:11:34.971Z,50.44
2022-10-28T15:14:24.890Z,50.03
2022-10-28T15:16:55.190Z,50.14
2022-10-28T15:19:25.626Z,50.14
2022-10-28T15:22:08.577Z,50.12
2022-10-28T15:24:43.041Z,50.27
2022-10-28T15:27:15.232Z,50.25
2022-10-28T15:29:44.332Z,50.22
2022-10-28T15:32:17.235Z,50.46
2022-10-28T15:34:46.064Z,50.49
2022-10-28T15:37:18.884Z,50.26
2022-10-28T15:39:49.351Z,50.07
2022-10-28T15:42:37.971Z,49.91
2022-10-28T15:45:08.253Z,50.10
2022-10-28T15:47:38.741Z,49.77
2022-10-28T15:50:26.961Z,50.02
2022-10-28T15:52:57.469Z,49.90
2022-10-28T15:55:54.487Z,50.03
2022-10-28T15:58:35.844Z,49.83
2022-10-28T16:01:09.834Z,50.21
2022-10-28T16:03:48.603Z,49.91
2022-10-28T16:06:33.779Z,50.44
2022-10-28T16:09:18.364Z,50.06
2022-10-28T16:11:48.718Z,50.04
2022-10-28T16:14:36.513Z,50.30
2022-10-28T16:17:15.544Z,50.11
2022-10-28T16:19:50.363Z,50.07
2022-10-28T16:22:19.478Z,50.75
2022-10-28T16:24:48.208Z,50.08
2022-10-28T16:27:21.300Z,50.25
2022-10-28T16:29:50.197Z,50.57
2022-10-28T16:32:21.000Z,50.11
2022-10-28T16:34:50.911Z,50.31
2022-10-28T16:37:24.384Z,50.44
2022-10-28T16:39:53.196Z,50.84
2022-10-28T16:42:22.259Z,50.48
2022-10-28T16:44:51.220Z,50.21
2022-10-28T16:47:20.849Z,50.45
2022-10-28T16:49:54.484Z,50.43
2022-10-28T16:52:27.719Z,50.62
2022-10-28T16:54:56.826Z,50.41
2022-10-28T16:57:27.448Z,50.58
2022-10-28T17:02:29.984Z,50.97
2022-10-28T17:05:02.639Z,50.34
2022-10-28T17:07:32.357Z,50.66
2022-10-28T17:10:01.885Z,50.59
2022-10-28T17:12:31.508Z,50.54
2022-10-28T17:15:01.131Z,50.35
2022-10-28T17:17:30.451Z,50.81
2022-10-28T17:20:01.527Z,50.59
2022-10-28T17:22:31.073Z,50.47
2022-10-28T17:25:00.422Z,50.55
2022-10-28T17:27:29.345Z,50.04
2022-10-28T17:29:58.527Z,50.39
2022-10-28T17:32:27.540Z,50.30
2022-10-28T17:34:56.321Z,50.38
2022-10-28T17:37:26.621Z,50.33
2022-10-28T17:39:57.259Z,50.23
2022-10-28T17:42:26.306Z,50.25
2022-10-28T17:44:55.088Z,50.30
2022-10-28T17:47:23.985Z,50.22
2022-10-28T17:49:52.880Z,50.28
2022-10-28T17:52:21.716Z,50.35
2022-10-28T17:54:51.913Z,50.38
2022-10-28T17:57:20.828Z,50.24
2022-10-28T17:59:49.673Z,50.27
2022-10-28T18:02:18.625Z,51.08
2022-10-28T18:04:47.572Z,50.16
2022-10-28T18:07:16.426Z,50.35
2022-10-28T18:09:45.347Z,50.57
2022-10-28T18:12:16.726Z,50.39
2022-10-28T18:14:45.669Z,50.31
2022-10-28T18:17:17.139Z,50.15
2022-10-28T18:19:46.025Z,50.39
2022-10-28T18:22:15.072Z,50.99
2022-10-28T18:24:43.960Z,50.55
2022-10-28T18:27:12.759Z,50.51
2022-10-28T18:29:43.009Z,50.48
2022-10-28T18:32:13.549Z,50.64
2022-10-28T18:34:42.498Z,50.64
2022-10-28T18:37:11.848Z,50.65
2022-10-28T18:39:40.659Z,50.52
2022-10-28T18:42:12.306Z,50.22
2022-10-28T18:44:42.802Z,50.85
2022-10-28T18:47:11.531Z,50.72
2022-10-28T18:49:40.337Z,50.72
2022-10-28T18:52:09.138Z,50.35
2022-10-28T18:54:37.978Z,50.57
2022-10-28T18:57:06.491Z,50.27
2022-10-28T18:59:43.295Z,50.21
2022-10-28T19:02:22.655Z,50.47
2022-10-28T19:04:51.533Z,50.36
2022-10-28T19:07:20.477Z,50.49
2022-10-28T19:09:49.252Z,50.84
2022-10-28T19:12:17.743Z,51.08
2022-10-28T19:14:46.497Z,51.14
2022-10-28T19:17:15.160Z,50.86
2022-10-28T19:19:45.728Z,51.52
2022-10-28T19:22:14.283Z,51.65
2022-10-28T19:24:43.811Z,52.04
2022-10-28T19:27:12.697Z,51.95
2022-10-28T19:29:41.644Z,51.24
2022-10-28T19:32:10.583Z,51.74
2022-10-28T19:34:39.560Z,51.77
2022-10-28T19:37:09.826Z,51.59
2022-10-28T19:39:38.833Z,51.53
2022-10-28T19:42:07.705Z,50.96
2022-10-28T19:44:36.652Z,50.99
2022-10-28T19:47:05.610Z,51.21
2022-10-28T19:49:39.322Z,51.43
2022-10-28T19:52:10.862Z,51.39
2022-10-28T19:54:39.713Z,51.37
2022-10-28T19:57:08.660Z,51.15
2022-10-28T19:59:37.629Z,51.10
2022-10-28T20:02:06.728Z,51.24
2022-10-28T20:04:35.767Z,51.18
2022-10-28T20:07:04.681Z,50.92
2022-10-28T20:09:37.848Z,50.79
2022-10-28T20:12:07.549Z,50.86
2022-10-28T20:14:36.407Z,50.62
2022-10-28T20:17:06.704Z,50.62
2022-10-28T20:19:35.836Z,50.69
2022-10-28T20:22:04.711Z,50.68
2022-10-28T20:24:33.560Z,50.60
2022-10-28T20:27:03.720Z,50.43
2022-10-28T20:29:32.501Z,50.62
2022-10-28T20:32:01.316Z,50.31
2022-10-28T20:34:30.193Z,50.05
2022-10-28T20:36:59.082Z,50.37
2022-10-28T20:39:27.987Z,50.42
2022-10-28T20:41:56.833Z,50.18
2022-10-28T20:44:27.654Z,50.22
2022-10-28T20:46:56.460Z,50.20
2022-10-28T20:49:25.453Z,49.98
2022-10-28T20:51:55.346Z,49.90
2022-10-28T20:54:24.207Z,50.27
2022-10-28T20:56:53.152Z,49.90
2022-10-28T20:59:22.068Z,50.20
2022-10-28T21:01:52.686Z,49.93
2022-10-28T21:04:22.160Z,50.03
2022-10-28T21:06:51.235Z,50.12
2022-10-28T21:09:20.271Z,49.83
2022-10-28T21:11:49.058Z,50.08
2022-10-28T21:14:17.903Z,49.84
2022-10-28T21:16:46.685Z,49.98
2022-10-28T21:19:17.459Z,49.85
2022-10-28T21:21:46.358Z,50.12
2022-10-28T21:24:15.430Z,50.04
2022-10-28T21:26:47.173Z,49.87
2022-10-28T21:29:19.790Z,49.56
2022-10-28T21:31:49.089Z,49.64
2022-10-28T21:34:19.441Z,49.74
2022-10-28T21:36:48.271Z,49.54
2022-10-28T21:39:17.154Z,49.80
2022-10-28T21:41:46.012Z,49.60
2022-10-28T21:44:15.134Z,49.85
2022-10-28T21:46:44.019Z,49.97
2022-10-28T21:49:12.943Z,50.11
2022-10-28T21:51:43.201Z,50.37
2022-10-28T21:54:12.018Z,50.25
2022-10-28T21:56:40.856Z,50.75
2022-10-28T21:59:09.687Z,50.50
2022-10-28T22:01:38.693Z,50.68
2022-10-28T22:04:07.936Z,50.55
2022-10-28T22:06:37.079Z,50.55
2022-10-28T22:09:07.527Z,50.29
2022-10-28T22:11:36.368Z,49.99
2022-10-28T22:14:05.827Z,50.05
2022-10-28T22:16:35.473Z,50.19
2022-10-28T22:19:06.190Z,50.17
2022-10-28T22:21:36.615Z,49.78
2022-10-28T22:24:07.463Z,50.00
2022-10-28T22:26:36.352Z,50.24
2022-10-28T22:29:05.220Z,49.89
2022-10-28T22:31:34.280Z,50.10
2022-10-28T22:34:05.355Z,50.10
2022-10-28T22:36:34.412Z,49.98
2022-10-28T22:39:03.211Z,50.02
2022-10-28T22:41:33.837Z,50.06
2022-10-28T22:44:03.089Z,50.23
2022-10-28T22:46:33.615Z,50.32
2022-10-28T22:49:02.453Z,49.96
2022-10-28T22:51:31.444Z,50.16
2022-10-28T22:54:00.336Z,49.87
2022-10-28T22:56:29.428Z,50.03
2022-10-28T22:59:01.910Z,50.13
2022-10-28T23:01:31.218Z,50.13
2022-10-28T23:04:00.969Z,50.21
2022-10-28T23:06:30.500Z,50.10
2022-10-28T23:08:59.407Z,50.11
2022-10-28T23:11:28.494Z,49.90
2022-10-28T23:13:58.653Z,49.52
2022-10-28T23:16:27.679Z,50.17
2022-10-28T23:18:56.765Z,50.02
2022-10-28T23:21:26.197Z,49.90
2022-10-28T23:23:55.402Z,49.98
2022-10-28T23:26:24.471Z,49.95
2022-10-28T23:28:53.927Z,49.81
2022-10-28T23:31:24.182Z,50.19
2022-10-28T23:33:53.622Z,49.81
2022-10-28T23:36:22.587Z,49.76
2022-10-28T23:38:52.575Z,49.89
2022-10-28T23:41:21.519Z,50.01
2022-10-28T23:43:50.647Z,49.90
2022-10-28T23:46:20.599Z,49.65
2022-10-28T23:48:51.067Z,49.92
2022-10-28T23:51:20.447Z,49.70
2022-10-28T23:53:49.443Z,49.85
2022-10-28T23:56:18.224Z,49.79
2022-10-28T23:58:47.042Z,49.72
